sensor_id;sensor_type;location;lat;lon;timestamp;P1;durP1;ratioP1;P2;durP2;ratioP2
29848;SDS011;16728;50.832;5.590;2023-03-01T00:02:53;13.60;;;9.10;;
29848;SDS011;16728;50.832;5.590;2023-03-01T00:05:55;12.07;;;8.50;;
29848;SDS011;16728;50.832;5.590;2023-03-01T00:08:57;10.90;;;9.10;;
29848;SDS011;16728;50.832;5.590;2023-03-01T00:11:59;12.00;;;9.45;;
29848;SDS011;16728;50.832;5.590;2023-03-01T00:15:01;17.30;;;10.40;;
29848;SDS011;16728;50.832;5.590;2023-03-01T00:18:03;16.67;;;10.30;;
29848;SDS011;16728;50.832;5.590;2023-03-01T00:21:05;22.70;;;12.10;;
29848;SDS011;16728;50.832;5.590;2023-03-01T00:24:08;21.83;;;13.23;;
29848;SDS011;16728;50.832;5.590;2023-03-01T00:27:11;17.50;;;12.07;;
29848;SDS011;16728;50.832;5.590;2023-03-01T00:30:13;23.38;;;14.23;;
29848;SDS011;16728;50.832;5.590;2023-03-01T00:33:15;20.52;;;13.20;;
29848;SDS011;16728;50.832;5.590;2023-03-01T00:36:17;18.30;;;11.95;;
29848;SDS011;16728;50.832;5.590;2023-03-01T00:39:18;15.55;;;10.85;;
29848;SDS011;16728;50.832;5.590;2023-03-01T00:42:20;11.38;;;9.20;;
29848;SDS011;16728;50.832;5.590;2023-03-01T00:45:23;18.13;;;11.60;;
29848;SDS011;16728;50.832;5.590;2023-03-01T00:48:25;20.00;;;12.75;;
29848;SDS011;16728;50.832;5.590;2023-03-01T00:51:27;16.25;;;11.02;;
29848;SDS011;16728;50.832;5.590;2023-03-01T00:54:31;14.57;;;9.55;;
29848;SDS011;16728;50.832;5.590;2023-03-01T00:57:33;11.30;;;9.55;;
29848;SDS011;16728;50.832;5.590;2023-03-01T01:00:34;13.05;;;9.57;;
29848;SDS011;16728;50.832;5.590;2023-03-01T01:03:37;11.02;;;9.65;;
29848;SDS011;16728;50.832;5.590;2023-03-01T01:06:40;11.60;;;8.68;;
29848;SDS011;16728;50.832;5.590;2023-03-01T01:09:44;11.80;;;9.20;;
29848;SDS011;16728;50.832;5.590;2023-03-01T01:12:46;12.90;;;9.32;;
29848;SDS011;16728;50.832;5.590;2023-03-01T01:15:48;11.95;;;8.73;;
29848;SDS011;16728;50.832;5.590;2023-03-01T01:18:50;12.70;;;9.00;;
29848;SDS011;16728;50.832;5.590;2023-03-01T01:21:52;14.57;;;8.50;;
29848;SDS011;16728;50.832;5.590;2023-03-01T01:24:54;12.95;;;8.85;;
29848;SDS011;16728;50.832;5.590;2023-03-01T01:27:56;12.43;;;8.75;;
29848;SDS011;16728;50.832;5.590;2023-03-01T01:30:58;12.50;;;9.00;;
29848;SDS011;16728;50.832;5.590;2023-03-01T01:34:02;10.30;;;8.45;;
29848;SDS011;16728;50.832;5.590;2023-03-01T01:37:06;11.70;;;8.20;;
29848;SDS011;16728;50.832;5.590;2023-03-01T01:40:09;11.25;;;9.13;;
29848;SDS011;16728;50.832;5.590;2023-03-01T01:43:16;11.55;;;8.70;;
29848;SDS011;16728;50.832;5.590;2023-03-01T01:46:25;12.57;;;9.05;;
29848;SDS011;16728;50.832;5.590;2023-03-01T01:49:43;11.65;;;8.63;;
29848;SDS011;16728;50.832;5.590;2023-03-01T01:52:54;12.23;;;9.23;;
29848;SDS011;16728;50.832;5.590;2023-03-01T01:55:57;12.25;;;9.13;;
29848;SDS011;16728;50.832;5.590;2023-03-01T01:59:01;12.57;;;8.93;;
29848;SDS011;16728;50.832;5.590;2023-03-01T02:02:04;12.00;;;8.55;;
29848;SDS011;16728;50.832;5.590;2023-03-01T02:05:54;13.77;;;9.33;;
29848;SDS011;16728;50.832;5.590;2023-03-01T02:08:57;11.20;;;8.57;;
29848;SDS011;16728;50.832;5.590;2023-03-01T02:12:03;14.63;;;8.70;;
29848;SDS011;16728;50.832;5.590;2023-03-01T02:15:06;14.68;;;9.30;;
29848;SDS011;16728;50.832;5.590;2023-03-01T02:18:08;10.27;;;8.77;;
29848;SDS011;16728;50.832;5.590;2023-03-01T02:27:58;11.05;;;8.75;;
29848;SDS011;16728;50.832;5.590;2023-03-01T02:31:19;12.63;;;9.60;;
29848;SDS011;16728;50.832;5.590;2023-03-01T02:34:41;15.05;;;9.27;;
29848;SDS011;16728;50.832;5.590;2023-03-01T02:37:43;11.93;;;8.65;;
29848;SDS011;16728;50.832;5.590;2023-03-01T02:40:46;11.95;;;9.00;;
29848;SDS011;16728;50.832;5.590;2023-03-01T02:43:50;15.20;;;9.63;;
29848;SDS011;16728;50.832;5.590;2023-03-01T02:46:53;14.30;;;9.10;;
29848;SDS011;16728;50.832;5.590;2023-03-01T02:49:59;12.10;;;8.27;;
29848;SDS011;16728;50.832;5.590;2023-03-01T02:56:24;17.20;;;9.07;;
29848;SDS011;16728;50.832;5.590;2023-03-01T02:59:29;15.15;;;10.55;;
29848;SDS011;16728;50.832;5.590;2023-03-01T03:02:40;15.75;;;10.32;;
29848;SDS011;16728;50.832;5.590;2023-03-01T03:05:42;14.40;;;9.48;;
29848;SDS011;16728;50.832;5.590;2023-03-01T03:08:44;9.70;;;6.45;;
29848;SDS011;16728;50.832;5.590;2023-03-01T03:11:46;15.40;;;9.23;;
29848;SDS011;16728;50.832;5.590;2023-03-01T03:14:48;12.05;;;9.45;;
29848;SDS011;16728;50.832;5.590;2023-03-01T03:17:50;14.05;;;9.52;;
29848;SDS011;16728;50.832;5.590;2023-03-01T03:20:54;12.88;;;9.10;;
29848;SDS011;16728;50.832;5.590;2023-03-01T03:23:56;11.45;;;9.07;;
29848;SDS011;16728;50.832;5.590;2023-03-01T03:30:01;10.93;;;8.95;;
29848;SDS011;16728;50.832;5.590;2023-03-01T03:33:03;13.38;;;9.55;;
29848;SDS011;16728;50.832;5.590;2023-03-01T03:36:06;13.02;;;9.15;;
29848;SDS011;16728;50.832;5.590;2023-03-01T03:39:08;10.77;;;9.18;;
29848;SDS011;16728;50.832;5.590;2023-03-01T03:42:10;12.55;;;9.32;;
29848;SDS011;16728;50.832;5.590;2023-03-01T03:45:12;11.75;;;9.35;;
29848;SDS011;16728;50.832;5.590;2023-03-01T03:48:14;12.10;;;9.55;;
29848;SDS011;16728;50.832;5.590;2023-03-01T03:51:17;11.90;;;9.88;;
29848;SDS011;16728;50.832;5.590;2023-03-01T03:54:20;14.70;;;9.68;;
29848;SDS011;16728;50.832;5.590;2023-03-01T03:57:21;12.25;;;9.43;;
29848;SDS011;16728;50.832;5.590;2023-03-01T04:00:23;15.55;;;9.32;;
29848;SDS011;16728;50.832;5.590;2023-03-01T04:03:26;13.52;;;9.80;;
29848;SDS011;16728;50.832;5.590;2023-03-01T04:06:28;11.90;;;9.75;;
29848;SDS011;16728;50.832;5.590;2023-03-01T04:09:31;9.40;;;7.13;;
29848;SDS011;16728;50.832;5.590;2023-03-01T04:12:33;12.50;;;9.80;;
29848;SDS011;16728;50.832;5.590;2023-03-01T04:15:36;14.15;;;10.00;;
29848;SDS011;16728;50.832;5.590;2023-03-01T04:18:38;7.55;;;6.68;;
29848;SDS011;16728;50.832;5.590;2023-03-01T04:21:39;12.35;;;9.55;;
29848;SDS011;16728;50.832;5.590;2023-03-01T04:24:41;11.43;;;9.45;;
29848;SDS011;16728;50.832;5.590;2023-03-01T04:27:43;13.38;;;9.43;;
29848;SDS011;16728;50.832;5.590;2023-03-01T04:30:45;13.00;;;9.90;;
29848;SDS011;16728;50.832;5.590;2023-03-01T04:33:48;12.02;;;9.85;;
29848;SDS011;16728;50.832;5.590;2023-03-01T04:36:55;16.88;;;9.85;;
29848;SDS011;16728;50.832;5.590;2023-03-01T04:39:57;16.35;;;10.00;;
29848;SDS011;16728;50.832;5.590;2023-03-01T04:42:58;12.35;;;9.48;;
29848;SDS011;16728;50.832;5.590;2023-03-01T04:46:02;13.90;;;9.87;;
29848;SDS011;16728;50.832;5.590;2023-03-01T04:49:15;17.88;;;10.55;;
29848;SDS011;16728;50.832;5.590;2023-03-01T04:52:17;14.05;;;9.63;;
29848;SDS011;16728;50.832;5.590;2023-03-01T04:55:19;13.85;;;10.07;;
29848;SDS011;16728;50.832;5.590;2023-03-01T04:58:25;15.65;;;10.48;;
29848;SDS011;16728;50.832;5.590;2023-03-01T05:01:28;14.00;;;9.88;;
29848;SDS011;16728;50.832;5.590;2023-03-01T05:04:30;13.10;;;10.10;;
29848;SDS011;16728;50.832;5.590;2023-03-01T05:07:32;15.57;;;11.00;;
29848;SDS011;16728;50.832;5.590;2023-03-01T05:10:35;13.43;;;10.68;;
29848;SDS011;16728;50.832;5.590;2023-03-01T05:16:40;16.23;;;10.10;;
29848;SDS011;16728;50.832;5.590;2023-03-01T05:19:42;14.73;;;10.13;;
29848;SDS011;16728;50.832;5.590;2023-03-01T05:22:44;15.32;;;10.93;;
29848;SDS011;16728;50.832;5.590;2023-03-01T05:25:46;16.10;;;10.40;;
29848;SDS011;16728;50.832;5.590;2023-03-01T05:28:48;13.98;;;10.55;;
29848;SDS011;16728;50.832;5.590;2023-03-01T05:31:56;14.40;;;10.38;;
29848;SDS011;16728;50.832;5.590;2023-03-01T05:35:00;12.45;;;10.13;;
29848;SDS011;16728;50.832;5.590;2023-03-01T05:38:02;16.00;;;11.48;;
29848;SDS011;16728;50.832;5.590;2023-03-01T05:41:04;12.10;;;10.18;;
29848;SDS011;16728;50.832;5.590;2023-03-01T05:44:06;15.60;;;10.50;;
29848;SDS011;16728;50.832;5.590;2023-03-01T05:47:08;13.53;;;11.03;;
29848;SDS011;16728;50.832;5.590;2023-03-01T05:53:20;16.25;;;10.85;;
29848;SDS011;16728;50.832;5.590;2023-03-01T05:56:22;15.47;;;11.03;;
29848;SDS011;16728;50.832;5.590;2023-03-01T05:59:24;17.90;;;10.30;;
29848;SDS011;16728;50.832;5.590;2023-03-01T06:05:31;15.50;;;11.45;;
29848;SDS011;16728;50.832;5.590;2023-03-01T06:08:33;14.07;;;10.65;;
29848;SDS011;16728;50.832;5.590;2023-03-01T06:11:35;22.48;;;10.77;;
29848;SDS011;16728;50.832;5.590;2023-03-01T06:14:38;16.08;;;10.77;;
29848;SDS011;16728;50.832;5.590;2023-03-01T06:17:41;15.38;;;11.02;;
29848;SDS011;16728;50.832;5.590;2023-03-01T06:20:44;16.17;;;10.93;;
29848;SDS011;16728;50.832;5.590;2023-03-01T06:23:46;15.00;;;11.43;;
29848;SDS011;16728;50.832;5.590;2023-03-01T06:26:48;15.55;;;12.05;;
29848;SDS011;16728;50.832;5.590;2023-03-01T06:29:49;17.92;;;12.40;;
29848;SDS011;16728;50.832;5.590;2023-03-01T06:32:51;16.08;;;12.20;;
29848;SDS011;16728;50.832;5.590;2023-03-01T06:35:54;17.52;;;12.10;;
29848;SDS011;16728;50.832;5.590;2023-03-01T06:38:57;16.45;;;11.77;;
29848;SDS011;16728;50.832;5.590;2023-03-01T06:41:59;15.15;;;11.15;;
29848;SDS011;16728;50.832;5.590;2023-03-01T06:45:01;16.63;;;12.30;;
29848;SDS011;16728;50.832;5.590;2023-03-01T06:48:04;18.65;;;12.80;;
29848;SDS011;16728;50.832;5.590;2023-03-01T06:51:07;18.50;;;11.68;;
29848;SDS011;16728;50.832;5.590;2023-03-01T06:54:09;17.13;;;11.80;;
29848;SDS011;16728;50.832;5.590;2023-03-01T06:57:11;16.35;;;11.80;;
29848;SDS011;16728;50.832;5.590;2023-03-01T07:00:13;14.57;;;11.65;;
29848;SDS011;16728;50.832;5.590;2023-03-01T07:03:16;17.08;;;11.77;;
29848;SDS011;16728;50.832;5.590;2023-03-01T07:06:18;16.83;;;11.32;;
29848;SDS011;16728;50.832;5.590;2023-03-01T07:09:22;33.10;;;12.25;;
29848;SDS011;16728;50.832;5.590;2023-03-01T07:12:24;18.15;;;13.00;;
29848;SDS011;16728;50.832;5.590;2023-03-01T07:15:27;17.27;;;12.05;;
29848;SDS011;16728;50.832;5.590;2023-03-01T07:18:29;13.10;;;9.15;;
29848;SDS011;16728;50.832;5.590;2023-03-01T07:21:30;17.65;;;12.05;;
29848;SDS011;16728;50.832;5.590;2023-03-01T07:24:33;16.33;;;12.48;;
29848;SDS011;16728;50.832;5.590;2023-03-01T07:27:35;17.73;;;12.83;;
29848;SDS011;16728;50.832;5.590;2023-03-01T07:30:37;17.33;;;13.18;;
29848;SDS011;16728;50.832;5.590;2023-03-01T07:33:39;16.67;;;11.85;;
29848;SDS011;16728;50.832;5.590;2023-03-01T07:36:40;19.20;;;13.40;;
29848;SDS011;16728;50.832;5.590;2023-03-01T07:39:44;19.38;;;13.82;;
29848;SDS011;16728;50.832;5.590;2023-03-01T07:42:46;16.65;;;13.20;;
29848;SDS011;16728;50.832;5.590;2023-03-01T07:45:48;24.63;;;13.30;;
29848;SDS011;16728;50.832;5.590;2023-03-01T07:48:50;15.50;;;12.02;;
29848;SDS011;16728;50.832;5.590;2023-03-01T07:51:52;18.63;;;12.35;;
29848;SDS011;16728;50.832;5.590;2023-03-01T07:54:54;20.33;;;12.75;;
29848;SDS011;16728;50.832;5.590;2023-03-01T07:57:56;19.67;;;13.07;;
29848;SDS011;16728;50.832;5.590;2023-03-01T08:01:00;17.27;;;13.52;;
29848;SDS011;16728;50.832;5.590;2023-03-01T08:04:03;19.85;;;13.20;;
29848;SDS011;16728;50.832;5.590;2023-03-01T08:07:08;22.63;;;13.27;;
29848;SDS011;16728;50.832;5.590;2023-03-01T08:10:10;17.87;;;13.47;;
29848;SDS011;16728;50.832;5.590;2023-03-01T08:13:12;17.58;;;13.07;;
29848;SDS011;16728;50.832;5.590;2023-03-01T08:16:15;22.35;;;13.90;;
29848;SDS011;16728;50.832;5.590;2023-03-01T08:19:17;17.90;;;14.07;;
29848;SDS011;16728;50.832;5.590;2023-03-01T08:22:19;23.23;;;13.57;;
29848;SDS011;16728;50.832;5.590;2023-03-01T08:25:21;19.83;;;13.40;;
29848;SDS011;16728;50.832;5.590;2023-03-01T08:28:23;16.88;;;13.05;;
29848;SDS011;16728;50.832;5.590;2023-03-01T08:31:25;19.38;;;12.63;;
29848;SDS011;16728;50.832;5.590;2023-03-01T08:34:30;20.55;;;13.68;;
29848;SDS011;16728;50.832;5.590;2023-03-01T08:37:32;18.27;;;13.57;;
29848;SDS011;16728;50.832;5.590;2023-03-01T08:40:34;15.38;;;12.63;;
29848;SDS011;16728;50.832;5.590;2023-03-01T08:43:36;18.27;;;13.68;;
29848;SDS011;16728;50.832;5.590;2023-03-01T08:46:39;21.67;;;13.27;;
29848;SDS011;16728;50.832;5.590;2023-03-01T08:49:42;15.30;;;12.88;;
29848;SDS011;16728;50.832;5.590;2023-03-01T08:52:44;19.63;;;12.98;;
29848;SDS011;16728;50.832;5.590;2023-03-01T08:55:46;77.13;;;43.88;;
29848;SDS011;16728;50.832;5.590;2023-03-01T08:58:50;24.95;;;18.42;;
29848;SDS011;16728;50.832;5.590;2023-03-01T09:01:52;23.98;;;18.08;;
29848;SDS011;16728;50.832;5.590;2023-03-01T09:04:54;27.45;;;21.58;;
29848;SDS011;16728;50.832;5.590;2023-03-01T09:07:57;23.80;;;14.97;;
29848;SDS011;16728;50.832;5.590;2023-03-01T09:11:01;27.50;;;18.92;;
29848;SDS011;16728;50.832;5.590;2023-03-01T09:14:06;20.10;;;14.52;;
29848;SDS011;16728;50.832;5.590;2023-03-01T09:17:08;24.42;;;14.20;;
29848;SDS011;16728;50.832;5.590;2023-03-01T09:20:10;20.10;;;13.52;;
29848;SDS011;16728;50.832;5.590;2023-03-01T09:23:12;25.70;;;18.27;;
29848;SDS011;16728;50.832;5.590;2023-03-01T09:26:18;20.90;;;14.52;;
29848;SDS011;16728;50.832;5.590;2023-03-01T09:29:22;21.92;;;15.95;;
29848;SDS011;16728;50.832;5.590;2023-03-01T09:32:24;19.50;;;14.63;;
29848;SDS011;16728;50.832;5.590;2023-03-01T09:35:26;19.23;;;14.45;;
29848;SDS011;16728;50.832;5.590;2023-03-01T09:38:29;22.10;;;16.25;;
29848;SDS011;16728;50.832;5.590;2023-03-01T09:44:56;24.08;;;14.80;;
29848;SDS011;16728;50.832;5.590;2023-03-01T09:48:02;28.38;;;19.58;;
29848;SDS011;16728;50.832;5.590;2023-03-01T09:51:08;37.83;;;33.83;;
29848;SDS011;16728;50.832;5.590;2023-03-01T09:54:15;58.22;;;51.97;;
29848;SDS011;16728;50.832;5.590;2023-03-01T09:57:41;25.95;;;20.50;;
29848;SDS011;16728;50.832;5.590;2023-03-01T10:00:41;19.77;;;16.00;;
29848;SDS011;16728;50.832;5.590;2023-03-01T10:13:47;22.67;;;14.68;;
29848;SDS011;16728;50.832;5.590;2023-03-01T10:20:23;21.20;;;14.75;;
29848;SDS011;16728;50.832;5.590;2023-03-01T10:26:55;19.45;;;13.10;;
29848;SDS011;16728;50.832;5.590;2023-03-01T10:33:25;21.98;;;15.85;;
29848;SDS011;16728;50.832;5.590;2023-03-01T10:36:37;20.95;;;14.90;;
29848;SDS011;16728;50.832;5.590;2023-03-01T10:39:57;22.33;;;14.82;;
29848;SDS011;16728;50.832;5.590;2023-03-01T10:43:10;20.60;;;15.18;;
29848;SDS011;16728;50.832;5.590;2023-03-01T10:49:23;24.75;;;17.20;;
29848;SDS011;16728;50.832;5.590;2023-03-01T10:55:35;23.75;;;14.88;;
29848;SDS011;16728;50.832;5.590;2023-03-01T10:58:40;24.42;;;16.35;;
29848;SDS011;16728;50.832;5.590;2023-03-01T11:05:27;22.23;;;15.85;;
29848;SDS011;16728;50.832;5.590;2023-03-01T11:08:36;23.77;;;17.20;;
29848;SDS011;16728;50.832;5.590;2023-03-01T11:11:42;22.77;;;17.17;;
29848;SDS011;16728;50.832;5.590;2023-03-01T11:14:46;24.88;;;18.15;;
29848;SDS011;16728;50.832;5.590;2023-03-01T11:17:50;22.83;;;16.38;;
29848;SDS011;16728;50.832;5.590;2023-03-01T11:21:00;26.65;;;19.17;;
29848;SDS011;16728;50.832;5.590;2023-03-01T11:24:04;26.27;;;16.95;;
29848;SDS011;16728;50.832;5.590;2023-03-01T11:27:17;23.83;;;16.73;;
29848;SDS011;16728;50.832;5.590;2023-03-01T11:30:28;24.02;;;15.57;;
29848;SDS011;16728;50.832;5.590;2023-03-01T11:37:20;29.27;;;18.30;;
29848;SDS011;16728;50.832;5.590;2023-03-01T11:40:27;21.35;;;16.25;;
29848;SDS011;16728;50.832;5.590;2023-03-01T12:04:15;21.45;;;15.18;;
29848;SDS011;16728;50.832;5.590;2023-03-01T12:34:03;18.70;;;12.98;;
29848;SDS011;16728;50.832;5.590;2023-03-01T12:47:20;17.02;;;12.93;;
29848;SDS011;16728;50.832;5.590;2023-03-01T12:50:58;18.58;;;13.05;;
29848;SDS011;16728;50.832;5.590;2023-03-01T12:54:25;24.35;;;14.00;;
29848;SDS011;16728;50.832;5.590;2023-03-01T12:57:42;17.77;;;12.23;;
29848;SDS011;16728;50.832;5.590;2023-03-01T13:01:04;22.55;;;12.73;;
29848;SDS011;16728;50.832;5.590;2023-03-01T13:07:51;21.30;;;13.30;;
29848;SDS011;16728;50.832;5.590;2023-03-01T13:11:00;19.55;;;12.65;;
29848;SDS011;16728;50.832;5.590;2023-03-01T13:17:31;19.83;;;13.13;;
29848;SDS011;16728;50.832;5.590;2023-03-01T13:23:43;18.10;;;12.82;;
29848;SDS011;16728;50.832;5.590;2023-03-01T13:30:38;22.85;;;14.25;;
29848;SDS011;16728;50.832;5.590;2023-03-01T13:33:45;25.65;;;14.73;;
29848;SDS011;16728;50.832;5.590;2023-03-01T13:36:49;23.05;;;14.73;;
29848;SDS011;16728;50.832;5.590;2023-03-01T13:39:51;19.23;;;13.38;;
29848;SDS011;16728;50.832;5.590;2023-03-01T13:42:54;22.75;;;13.77;;
29848;SDS011;16728;50.832;5.590;2023-03-01T13:49:22;20.35;;;12.75;;
29848;SDS011;16728;50.832;5.590;2023-03-01T13:55:42;20.42;;;13.20;;
29848;SDS011;16728;50.832;5.590;2023-03-01T14:01:54;18.42;;;12.70;;
29848;SDS011;16728;50.832;5.590;2023-03-01T14:04:59;18.42;;;11.73;;
29848;SDS011;16728;50.832;5.590;2023-03-01T14:08:02;18.65;;;11.65;;
29848;SDS011;16728;50.832;5.590;2023-03-01T14:20:56;15.85;;;11.57;;
29848;SDS011;16728;50.832;5.590;2023-03-01T14:23:59;19.05;;;11.30;;
29848;SDS011;16728;50.832;5.590;2023-03-01T14:27:02;17.67;;;11.98;;
29848;SDS011;16728;50.832;5.590;2023-03-01T14:30:09;17.55;;;11.68;;
29848;SDS011;16728;50.832;5.590;2023-03-01T14:36:34;15.30;;;11.07;;
29848;SDS011;16728;50.832;5.590;2023-03-01T14:39:36;18.42;;;12.20;;
29848;SDS011;16728;50.832;5.590;2023-03-01T14:42:38;20.23;;;11.65;;
29848;SDS011;16728;50.832;5.590;2023-03-01T14:45:40;16.13;;;11.25;;
29848;SDS011;16728;50.832;5.590;2023-03-01T14:48:53;18.65;;;11.57;;
29848;SDS011;16728;50.832;5.590;2023-03-01T14:52:00;15.93;;;11.90;;
29848;SDS011;16728;50.832;5.590;2023-03-01T14:55:05;13.52;;;9.98;;
29848;SDS011;16728;50.832;5.590;2023-03-01T14:58:18;15.95;;;10.70;;
29848;SDS011;16728;50.832;5.590;2023-03-01T15:01:22;17.17;;;10.23;;
29848;SDS011;16728;50.832;5.590;2023-03-01T15:04:24;15.70;;;10.07;;
29848;SDS011;16728;50.832;5.590;2023-03-01T15:07:30;15.02;;;10.15;;
29848;SDS011;16728;50.832;5.590;2023-03-01T15:10:35;13.82;;;9.80;;
29848;SDS011;16728;50.832;5.590;2023-03-01T15:13:38;13.63;;;10.40;;
29848;SDS011;16728;50.832;5.590;2023-03-01T15:16:40;14.30;;;9.93;;
29848;SDS011;16728;50.832;5.590;2023-03-01T15:19:45;12.05;;;9.77;;
29848;SDS011;16728;50.832;5.590;2023-03-01T15:22:48;16.48;;;10.10;;
29848;SDS011;16728;50.832;5.590;2023-03-01T15:25:51;14.82;;;10.52;;
29848;SDS011;16728;50.832;5.590;2023-03-01T15:29:01;13.85;;;10.15;;
29848;SDS011;16728;50.832;5.590;2023-03-01T15:32:04;11.73;;;9.13;;
29848;SDS011;16728;50.832;5.590;2023-03-01T15:45:30;14.32;;;8.52;;
29848;SDS011;16728;50.832;5.590;2023-03-01T15:48:35;14.60;;;8.68;;
29848;SDS011;16728;50.832;5.590;2023-03-01T15:51:37;14.50;;;8.43;;
29848;SDS011;16728;50.832;5.590;2023-03-01T15:54:39;13.43;;;8.32;;
29848;SDS011;16728;50.832;5.590;2023-03-01T15:57:41;12.13;;;7.38;;
29848;SDS011;16728;50.832;5.590;2023-03-01T16:00:44;13.23;;;9.07;;
29848;SDS011;16728;50.832;5.590;2023-03-01T16:04:01;11.90;;;8.82;;
29848;SDS011;16728;50.832;5.590;2023-03-01T16:07:03;13.32;;;9.07;;
29848;SDS011;16728;50.832;5.590;2023-03-01T16:10:05;14.32;;;7.88;;
29848;SDS011;16728;50.832;5.590;2023-03-01T16:13:07;12.95;;;8.35;;
29848;SDS011;16728;50.832;5.590;2023-03-01T16:16:10;14.13;;;8.40;;
29848;SDS011;16728;50.832;5.590;2023-03-01T16:19:16;17.55;;;10.30;;
29848;SDS011;16728;50.832;5.590;2023-03-01T16:22:18;11.63;;;8.63;;
29848;SDS011;16728;50.832;5.590;2023-03-01T16:25:26;13.90;;;8.50;;
29848;SDS011;16728;50.832;5.590;2023-03-01T16:28:28;16.30;;;11.10;;
29848;SDS011;16728;50.832;5.590;2023-03-01T16:31:30;17.73;;;10.27;;
29848;SDS011;16728;50.832;5.590;2023-03-01T16:34:33;11.40;;;8.50;;
29848;SDS011;16728;50.832;5.590;2023-03-01T16:37:35;20.15;;;10.48;;
29848;SDS011;16728;50.832;5.590;2023-03-01T16:40:37;19.93;;;11.37;;
29848;SDS011;16728;50.832;5.590;2023-03-01T16:43:39;13.90;;;8.82;;
29848;SDS011;16728;50.832;5.590;2023-03-01T16:46:42;14.18;;;9.65;;
29848;SDS011;16728;50.832;5.590;2023-03-01T16:49:44;23.25;;;14.77;;
29848;SDS011;16728;50.832;5.590;2023-03-01T16:52:46;16.83;;;11.77;;
29848;SDS011;16728;50.832;5.590;2023-03-01T16:55:57;16.63;;;11.68;;
29848;SDS011;16728;50.832;5.590;2023-03-01T16:59:00;20.65;;;14.68;;
29848;SDS011;16728;50.832;5.590;2023-03-01T17:02:08;20.77;;;11.82;;
29848;SDS011;16728;50.832;5.590;2023-03-01T17:05:14;17.17;;;12.38;;
29848;SDS011;16728;50.832;5.590;2023-03-01T17:08:16;17.52;;;10.85;;
29848;SDS011;16728;50.832;5.590;2023-03-01T17:11:19;19.50;;;12.67;;
29848;SDS011;16728;50.832;5.590;2023-03-01T17:14:21;19.23;;;12.23;;
29848;SDS011;16728;50.832;5.590;2023-03-01T17:17:23;17.10;;;10.65;;
29848;SDS011;16728;50.832;5.590;2023-03-01T17:20:25;19.25;;;12.48;;
29848;SDS011;16728;50.832;5.590;2023-03-01T17:23:28;151.60;;;112.30;;
29848;SDS011;16728;50.832;5.590;2023-03-01T17:26:31;28.23;;;22.40;;
29848;SDS011;16728;50.832;5.590;2023-03-01T17:29:33;28.30;;;21.25;;
29848;SDS011;16728;50.832;5.590;2023-03-01T17:32:35;23.58;;;16.23;;
29848;SDS011;16728;50.832;5.590;2023-03-01T17:35:37;23.63;;;18.13;;
29848;SDS011;16728;50.832;5.590;2023-03-01T17:38:40;21.95;;;14.45;;
29848;SDS011;16728;50.832;5.590;2023-03-01T17:41:42;21.98;;;13.10;;
29848;SDS011;16728;50.832;5.590;2023-03-01T17:44:44;14.75;;;10.10;;
29848;SDS011;16728;50.832;5.590;2023-03-01T17:47:45;14.65;;;9.23;;
29848;SDS011;16728;50.832;5.590;2023-03-01T17:50:48;15.88;;;9.93;;
29848;SDS011;16728;50.832;5.590;2023-03-01T17:53:50;15.05;;;10.20;;
29848;SDS011;16728;50.832;5.590;2023-03-01T17:56:52;13.70;;;8.52;;
29848;SDS011;16728;50.832;5.590;2023-03-01T17:59:55;25.83;;;16.75;;
29848;SDS011;16728;50.832;5.590;2023-03-01T18:02:57;93.40;;;55.08;;
29848;SDS011;16728;50.832;5.590;2023-03-01T18:06:00;238.85;;;144.30;;
29848;SDS011;16728;50.832;5.590;2023-03-01T18:09:02;155.15;;;93.95;;
29848;SDS011;16728;50.832;5.590;2023-03-01T18:12:04;114.78;;;70.35;;
29848;SDS011;16728;50.832;5.590;2023-03-01T18:15:07;105.03;;;64.75;;
29848;SDS011;16728;50.832;5.590;2023-03-01T18:18:09;169.40;;;110.40;;
29848;SDS011;16728;50.832;5.590;2023-03-01T18:21:11;54.95;;;40.00;;
29848;SDS011;16728;50.832;5.590;2023-03-01T18:27:16;148.73;;;123.75;;
29848;SDS011;16728;50.832;5.590;2023-03-01T18:30:18;58.17;;;48.80;;
29848;SDS011;16728;50.832;5.590;2023-03-01T18:33:20;46.70;;;36.55;;
29848;SDS011;16728;50.832;5.590;2023-03-01T18:36:23;45.53;;;34.92;;
29848;SDS011;16728;50.832;5.590;2023-03-01T18:39:27;25.17;;;18.75;;
29848;SDS011;16728;50.832;5.590;2023-03-01T18:42:29;23.13;;;17.73;;
29848;SDS011;16728;50.832;5.590;2023-03-01T18:45:30;38.53;;;30.92;;
29848;SDS011;16728;50.832;5.590;2023-03-01T18:48:32;20.88;;;14.07;;
29848;SDS011;16728;50.832;5.590;2023-03-01T18:51:36;34.35;;;24.02;;
29848;SDS011;16728;50.832;5.590;2023-03-01T18:54:38;32.10;;;20.65;;
29848;SDS011;16728;50.832;5.590;2023-03-01T18:57:40;22.88;;;15.15;;
29848;SDS011;16728;50.832;5.590;2023-03-01T19:00:42;22.75;;;15.95;;
29848;SDS011;16728;50.832;5.590;2023-03-01T19:03:43;20.83;;;14.68;;
29848;SDS011;16728;50.832;5.590;2023-03-01T19:06:47;36.38;;;26.60;;
29848;SDS011;16728;50.832;5.590;2023-03-01T19:09:49;39.65;;;27.00;;
29848;SDS011;16728;50.832;5.590;2023-03-01T19:12:51;30.33;;;15.90;;
29848;SDS011;16728;50.832;5.590;2023-03-01T19:16:01;32.58;;;24.60;;
29848;SDS011;16728;50.832;5.590;2023-03-01T19:19:05;25.13;;;17.70;;
29848;SDS011;16728;50.832;5.590;2023-03-01T19:22:10;48.90;;;35.60;;
29848;SDS011;16728;50.832;5.590;2023-03-01T19:25:12;55.15;;;36.08;;
29848;SDS011;16728;50.832;5.590;2023-03-01T19:28:14;41.28;;;27.60;;
29848;SDS011;16728;50.832;5.590;2023-03-01T19:31:17;31.02;;;20.40;;
29848;SDS011;16728;50.832;5.590;2023-03-01T19:34:21;23.38;;;14.25;;
29848;SDS011;16728;50.832;5.590;2023-03-01T19:37:24;17.15;;;13.25;;
29848;SDS011;16728;50.832;5.590;2023-03-01T19:40:26;27.80;;;19.33;;
29848;SDS011;16728;50.832;5.590;2023-03-01T19:43:28;20.92;;;14.60;;
29848;SDS011;16728;50.832;5.590;2023-03-01T19:46:30;40.97;;;26.02;;
29848;SDS011;16728;50.832;5.590;2023-03-01T19:49:34;31.50;;;20.83;;
29848;SDS011;16728;50.832;5.590;2023-03-01T19:52:37;22.40;;;16.17;;
29848;SDS011;16728;50.832;5.590;2023-03-01T19:55:39;31.20;;;18.65;;
29848;SDS011;16728;50.832;5.590;2023-03-01T19:58:42;35.65;;;18.08;;
29848;SDS011;16728;50.832;5.590;2023-03-01T20:01:44;21.58;;;13.90;;
29848;SDS011;16728;50.832;5.590;2023-03-01T20:04:47;76.55;;;40.67;;
29848;SDS011;16728;50.832;5.590;2023-03-01T20:07:49;32.22;;;17.00;;
29848;SDS011;16728;50.832;5.590;2023-03-01T20:10:59;36.10;;;21.20;;
29848;SDS011;16728;50.832;5.590;2023-03-01T20:14:03;31.02;;;19.67;;
29848;SDS011;16728;50.832;5.590;2023-03-01T20:17:06;33.45;;;21.85;;
29848;SDS011;16728;50.832;5.590;2023-03-01T20:20:09;20.92;;;13.73;;
29848;SDS011;16728;50.832;5.590;2023-03-01T20:23:11;17.45;;;11.05;;
29848;SDS011;16728;50.832;5.590;2023-03-01T20:26:14;19.67;;;12.23;;
29848;SDS011;16728;50.832;5.590;2023-03-01T20:29:19;23.00;;;12.68;;
29848;SDS011;16728;50.832;5.590;2023-03-01T20:32:22;17.95;;;11.18;;
29848;SDS011;16728;50.832;5.590;2023-03-01T20:35:24;16.80;;;11.63;;
29848;SDS011;16728;50.832;5.590;2023-03-01T20:38:25;17.48;;;11.80;;
29848;SDS011;16728;50.832;5.590;2023-03-01T20:41:28;19.92;;;11.25;;
29848;SDS011;16728;50.832;5.590;2023-03-01T20:44:30;16.60;;;12.02;;
29848;SDS011;16728;50.832;5.590;2023-03-01T20:47:31;19.58;;;13.23;;
29848;SDS011;16728;50.832;5.590;2023-03-01T20:50:33;22.45;;;13.85;;